首页
METAR-TAF:

METAR-TAF

机场 :

馬拉博機場

馬拉博, 赤道几内亚

纬度: 03-45-18N, 经度: 08-42-31E, 海拔: 23米

当前天气观测

该预报发布于1小时和5分钟前的23:00 UTC
静风
温度 25°C
湿度 83%
气压 1015 hPa
能见度10公里或以上
少量云层高于1000英尺
多云层高于5000英尺

METAR: FGSL 192300Z 00000KT 9999 FEW010 BKN050 25/22 Q1015 NOSIG

时间: 01:05 (00:05 UTC)

预报

该预报发布于1小时和5分钟前的23:00 UTC
预报有效从20日的 00点(UTC)到 21日的 06点(UTC)
风速6节,风向西南
能见度10公里或以上
散云层高于1000英尺
短暂存在
从 20日的 04点(UTC)到 20日的 08点(UTC)
能見度: 4000
多云层高于800英尺
少量云层高于1800英尺, 积雨云.
雷暴, 雨
短暂存在
从 20日的 10点(UTC)到 20日的 12点(UTC)
散云层高于1200英尺
少量云层高于2000英尺, 积雨云.

TAF: FGSL 192300Z 2000/2106 23006KT 9999 SCT010 TEMPO 2004/2008 4000 TSRA BKN008 FEW018CB TEMPO 2010/2012 SCT012 FEW020CB

超过4000个机场的气象观测和天气预报(METAR&TAF报告)。

可查询的气象台以黄色和红色小点在地图上表示。

将鼠标移到小点上方,可查看气象台名称。

然后点击查看天气观测和预报。

如需切换地图:点击带黑十字的绿色按钮放大地图;点击带横线的绿色按钮缩小地图;或者点击绿色箭头查看邻近地区的地图。


METAR-TAF: